PWSweather.com
Personal Weather Stations
Station Observations
SHAHALMS1
Eftra, Falkenberg, HA

EftraFalkenberg, HA

Lat: 56.85, Lon: 12.65

Elevation: 140

Station Type:

http://hem.passagen.se/risarp101

High Low Average
Temperature 38.3°F3.5°C 33.1°F0.6°C 36.0°F2.2°C
Dew Point 34.2°F1.2°C 29.6°F-1.3°C 32.1°F0.1°C
Winds 20.7 mph 33.3 kmh 2.1 mph 3.4 kmh 11.0 mph SSW17.7 kmh SSW
Wind Gusts 47.6 mph76.6 kmh 10.0 mph16.1 kmh 26.0 mph41.8 kmh
Humidity 93% 77% 86%
Pressure 29.47 in998.0 mb 29.03 in983.1 mb -
Precipitation 0.68 in17.3 mm - -
Hour Temp Dew Point Humidity Winds Wind Gusts Pressure Precip Precip Rate Daily Precip Total
12:00 AM 36.0°F2.2°C 34.1°F1.2°C 93% 10.0 mph W16.1 kmh W 19.7 mph31.7 kmh 29.47 in998.0 mb 0.00 in0.0 mm 0.00 in0.0 mm 0.00 in0.0 mm
12:15 AM 36.3°F2.4°C 34.2°F1.2°C 92% 10.6 mph W17.1 kmh W 21.1 mph34.0 kmh 29.47 in998.0 mb 0.00 in0.0 mm 0.00 in0.0 mm 0.00 in0.0 mm
12:30 AM 36.5°F2.5°C 34.1°F1.2°C 91% 14.0 mph W22.5 kmh W 26.8 mph43.1 kmh 29.47 in998.0 mb 0.00 in0.0 mm 0.00 in0.0 mm 0.00 in0.0 mm
12:45 AM 36.3°F2.4°C 33.1°F0.6°C 88% 10.5 mph W16.9 kmh W 17.5 mph28.2 kmh 29.47 in998.0 mb 0.00 in0.0 mm 0.00 in0.0 mm 0.00 in0.0 mm
01:00 AM 36.5°F2.5°C 33.3°F0.7°C 88% 9.1 mph W14.6 kmh W 17.5 mph28.2 kmh 29.47 in998.0 mb 0.00 in0.0 mm 0.00 in0.0 mm 0.00 in0.0 mm
01:15 AM 36.7°F2.6°C 33.5°F0.8°C 88% 12.3 mph W19.8 kmh W 29.7 mph47.8 kmh 29.47 in998.0 mb 0.00 in0.0 mm 0.00 in0.0 mm 0.00 in0.0 mm
01:30 AM 36.7°F2.6°C 33.2°F0.7°C 87% 10.2 mph W16.4 kmh W 32.2 mph51.8 kmh 29.47 in998.0 mb 0.00 in0.0 mm 0.00 in0.0 mm 0.00 in0.0 mm
01:45 AM 36.9°F2.7°C 33.4°F0.8°C 87% 10.7 mph W17.2 kmh W 22.5 mph36.2 kmh 29.47 in998.0 mb 0.00 in0.0 mm 0.00 in0.0 mm 0.00 in0.0 mm
02:00 AM 37.2°F2.9°C 33.7°F0.9°C 87% 13.2 mph W21.2 kmh W 27.2 mph43.8 kmh 29.47 in998.0 mb 0.04 in1.0 mm 0.05 in1.3 mm 0.04 in1.0 mm
02:15 AM 37.2°F2.9°C 33.4°F0.8°C 86% 13.3 mph W21.4 kmh W 27.2 mph43.8 kmh 29.47 in998.0 mb 0.04 in1.0 mm 0.00 in0.0 mm 0.04 in1.0 mm
02:30 AM 37.2°F2.9°C 33.1°F0.6°C 85% 13.7 mph W22.0 kmh W 28.3 mph45.5 kmh 29.47 in998.0 mb 0.04 in1.0 mm 0.00 in0.0 mm 0.04 in1.0 mm
02:45 AM 37.2°F2.9°C 33.1°F0.6°C 85% 14.2 mph W22.9 kmh W 26.8 mph43.1 kmh 29.47 in998.0 mb 0.04 in1.0 mm 0.00 in0.0 mm 0.04 in1.0 mm
03:00 AM 37.4°F3.0°C 33.6°F0.9°C 86% 14.2 mph W22.9 kmh W 33.3 mph53.6 kmh 29.47 in998.0 mb 0.00 in0.0 mm 0.00 in0.0 mm 0.04 in1.0 mm
03:15 AM 37.4°F3.0°C 33.6°F0.9°C 86% 13.4 mph W21.6 kmh W 27.2 mph43.8 kmh 29.47 in998.0 mb 0.00 in0.0 mm 0.00 in0.0 mm 0.04 in1.0 mm
03:30 AM 37.4°F3.0°C 33.3°F0.7°C 85% 14.6 mph W23.5 kmh W 28.3 mph45.5 kmh 29.47 in998.0 mb 0.00 in0.0 mm 0.00 in0.0 mm 0.04 in1.0 mm
03:45 AM 37.4°F3.0°C 33.3°F0.7°C 85% 15.8 mph W25.4 kmh W 38.3 mph61.6 kmh 29.47 in998.0 mb 0.00 in0.0 mm 0.00 in0.0 mm 0.04 in1.0 mm
04:00 AM 37.6°F3.1°C 34.1°F1.2°C 87% 15.2 mph WSW24.5 kmh WSW 30.1 mph48.4 kmh 29.47 in998.0 mb 0.04 in1.0 mm 0.05 in1.3 mm 0.09 in2.3 mm
04:15 AM 37.8°F3.2°C 34.2°F1.2°C 87% 15.3 mph WSW24.6 kmh WSW 35.8 mph57.6 kmh 29.45 in997.3 mb 0.04 in1.0 mm 0.00 in0.0 mm 0.09 in2.3 mm
04:30 AM 37.8°F3.2°C 33.9°F1.1°C 86% 13.0 mph WSW20.9 kmh WSW 24.7 mph39.8 kmh 29.45 in997.3 mb 0.04 in1.0 mm 0.00 in0.0 mm 0.09 in2.3 mm
04:45 AM 38.1°F3.4°C 34.0°F1.1°C 85% 17.2 mph WSW27.7 kmh WSW 38.7 mph62.3 kmh 29.45 in997.3 mb 0.10 in2.5 mm 0.24 in6.1 mm 0.14 in3.6 mm
05:00 AM 38.1°F3.4°C 34.0°F1.1°C 85% 16.1 mph WSW25.9 kmh WSW 31.5 mph50.7 kmh 29.45 in997.3 mb 0.06 in1.5 mm 0.00 in0.0 mm 0.14 in3.6 mm
05:15 AM 38.3°F3.5°C 33.9°F1.1°C 84% 18.5 mph WSW29.8 kmh WSW 39.0 mph62.8 kmh 29.45 in997.3 mb 0.10 in2.5 mm 0.16 in4.1 mm 0.19 in4.8 mm
05:30 AM 38.3°F3.5°C 33.6°F0.9°C 83% 18.6 mph WSW29.9 kmh WSW 39.4 mph63.4 kmh 29.45 in997.3 mb 0.10 in2.5 mm 0.00 in0.0 mm 0.19 in4.8 mm
05:45 AM 38.3°F3.5°C 33.6°F0.9°C 83% 19.4 mph W31.2 kmh W 37.9 mph61.0 kmh 29.45 in997.3 mb 0.04 in1.0 mm 0.00 in0.0 mm 0.19 in4.8 mm
06:01 AM 38.3°F3.5°C 33.3°F0.7°C 82% 16.9 mph W27.2 kmh W 35.1 mph56.5 kmh 29.47 in998.0 mb 0.09 in2.3 mm 0.07 in1.8 mm 0.23 in5.8 mm
06:15 AM 38.3°F3.5°C 33.3°F0.7°C 82% 18.7 mph W30.1 kmh W 47.6 mph76.6 kmh 29.47 in998.0 mb 0.04 in1.0 mm 0.00 in0.0 mm 0.23 in5.8 mm
06:30 AM 38.3°F3.5°C 33.0°F0.6°C 81% 19.4 mph WSW31.2 kmh WSW 41.5 mph66.8 kmh 29.47 in998.0 mb 0.04 in1.0 mm 0.00 in0.0 mm 0.23 in5.8 mm
06:45 AM 38.1°F3.4°C 32.5°F0.3°C 80% 20.5 mph WSW33.0 kmh WSW 41.5 mph66.8 kmh 29.47 in998.0 mb 0.09 in2.3 mm 0.20 in5.1 mm 0.28 in7.1 mm
07:00 AM 38.1°F3.4°C 31.9°F-0.1°C 78% 20.7 mph W33.3 kmh W 44.4 mph71.5 kmh 29.47 in998.0 mb 0.04 in1.0 mm 0.00 in0.0 mm 0.28 in7.1 mm
07:15 AM 37.9°F3.3°C 32.0°F0.0°C 79% 15.3 mph WSW24.6 kmh WSW 30.8 mph49.6 kmh 29.47 in998.0 mb 0.04 in1.0 mm 0.00 in0.0 mm 0.28 in7.1 mm
07:30 AM 37.8°F3.2°C 32.5°F0.3°C 81% 16.6 mph SW26.7 kmh SW 39.4 mph63.4 kmh 29.47 in998.0 mb 0.04 in1.0 mm 0.00 in0.0 mm 0.28 in7.1 mm
07:45 AM 37.6°F3.1°C 32.6°F0.3°C 82% 19.0 mph SW30.6 kmh SW 40.8 mph65.7 kmh 29.47 in998.0 mb 0.00 in0.0 mm 0.00 in0.0 mm 0.28 in7.1 mm
08:00 AM 37.6°F3.1°C 32.3°F0.2°C 81% 17.2 mph WSW27.7 kmh WSW 42.9 mph69.0 kmh 29.47 in998.0 mb 0.00 in0.0 mm 0.00 in0.0 mm 0.28 in7.1 mm
08:15 AM 37.4°F3.0°C 31.8°F-0.1°C 80% 18.7 mph SW30.1 kmh SW 37.2 mph59.9 kmh 29.47 in998.0 mb 0.04 in1.0 mm 0.16 in4.1 mm 0.32 in8.1 mm
08:30 AM 37.4°F3.0°C 31.5°F-0.3°C 79% 15.1 mph SW24.3 kmh SW 36.5 mph58.7 kmh 29.47 in998.0 mb 0.04 in1.0 mm 0.00 in0.0 mm 0.32 in8.1 mm
08:45 AM 37.2°F2.9°C 31.0°F-0.6°C 78% 15.0 mph SSW24.1 kmh SSW 32.2 mph51.8 kmh 29.47 in998.0 mb 0.04 in1.0 mm 0.00 in0.0 mm 0.32 in8.1 mm
09:00 AM 37.0°F2.8°C 30.8°F-0.7°C 78% 10.6 mph S17.1 kmh S 27.2 mph43.8 kmh 29.47 in998.0 mb 0.04 in1.0 mm 0.00 in0.0 mm 0.32 in8.1 mm
09:15 AM 37.0°F2.8°C 30.8°F-0.7°C 78% 12.8 mph SW20.6 kmh SW 28.3 mph45.5 kmh 29.47 in998.0 mb 0.00 in0.0 mm 0.00 in0.0 mm 0.32 in8.1 mm
09:30 AM 36.9°F2.7°C 30.6°F-0.8°C 78% 11.7 mph S18.8 kmh S 20.8 mph33.5 kmh 29.47 in998.0 mb 0.00 in0.0 mm 0.00 in0.0 mm 0.32 in8.1 mm
09:45 AM 36.7°F2.6°C 30.5°F-0.8°C 78% 9.8 mph S15.8 kmh S 25.8 mph41.5 kmh 29.45 in997.3 mb 0.00 in0.0 mm 0.00 in0.0 mm 0.32 in8.1 mm
10:00 AM 36.3°F2.4°C 29.8°F-1.2°C 77% 11.0 mph S17.7 kmh S 30.8 mph49.6 kmh 29.45 in997.3 mb 0.00 in0.0 mm 0.00 in0.0 mm 0.32 in8.1 mm
10:15 AM 36.3°F2.4°C 29.8°F-1.2°C 77% 9.2 mph S14.8 kmh S 20.8 mph33.5 kmh 29.45 in997.3 mb 0.00 in0.0 mm 0.00 in0.0 mm 0.32 in8.1 mm
10:30 AM 36.1°F2.3°C 29.9°F-1.2°C 78% 10.2 mph S16.4 kmh S 20.8 mph33.5 kmh 29.41 in995.9 mb 0.00 in0.0 mm 0.00 in0.0 mm 0.32 in8.1 mm
10:45 AM 36.3°F2.4°C 30.1°F-1.1°C 78% 10.2 mph S16.4 kmh S 26.1 mph42.0 kmh 29.45 in997.3 mb 0.00 in0.0 mm 0.00 in0.0 mm 0.32 in8.1 mm
11:00 AM 36.3°F2.4°C 29.8°F-1.2°C 77% 11.7 mph S18.8 kmh S 30.8 mph49.6 kmh 29.41 in995.9 mb 0.00 in0.0 mm 0.00 in0.0 mm 0.32 in8.1 mm
11:15 AM 36.3°F2.4°C 30.1°F-1.1°C 78% 11.4 mph S18.3 kmh S 25.8 mph41.5 kmh 29.45 in997.3 mb 0.00 in0.0 mm 0.00 in0.0 mm 0.32 in8.1 mm
11:30 AM 36.3°F2.4°C 30.1°F-1.1°C 78% 9.4 mph S15.1 kmh S 24.7 mph39.8 kmh 29.45 in997.3 mb 0.00 in0.0 mm 0.00 in0.0 mm 0.32 in8.1 mm
11:45 AM 36.0°F2.2°C 29.8°F-1.2°C 78% 8.3 mph S13.4 kmh S 19.0 mph30.6 kmh 29.45 in997.3 mb 0.00 in0.0 mm 0.00 in0.0 mm 0.32 in8.1 mm
12:00 PM 36.0°F2.2°C 29.8°F-1.2°C 78% 8.5 mph S13.7 kmh S 20.4 mph32.8 kmh 29.39 in995.3 mb 0.00 in0.0 mm 0.00 in0.0 mm 0.32 in8.1 mm
12:15 PM 36.0°F2.2°C 29.8°F-1.2°C 78% 11.6 mph S18.7 kmh S 28.3 mph45.5 kmh 29.39 in995.3 mb 0.00 in0.0 mm 0.00 in0.0 mm 0.32 in8.1 mm
12:30 PM 35.8°F2.1°C 29.6°F-1.3°C 78% 8.4 mph S13.5 kmh S 25.8 mph41.5 kmh 29.41 in995.9 mb 0.00 in0.0 mm 0.00 in0.0 mm 0.32 in8.1 mm
12:45 PM 35.8°F2.1°C 29.6°F-1.3°C 78% 9.0 mph S14.5 kmh S 21.1 mph34.0 kmh 29.39 in995.3 mb 0.00 in0.0 mm 0.00 in0.0 mm 0.32 in8.1 mm
01:00 PM 35.8°F2.1°C 29.6°F-1.3°C 78% 11.0 mph S17.7 kmh S 28.3 mph45.5 kmh 29.36 in994.2 mb 0.00 in0.0 mm 0.00 in0.0 mm 0.32 in8.1 mm
01:15 PM 36.0°F2.2°C 29.8°F-1.2°C 78% 13.2 mph S21.2 kmh S 30.8 mph49.6 kmh 29.36 in994.2 mb 0.00 in0.0 mm 0.00 in0.0 mm 0.32 in8.1 mm
01:30 PM 36.0°F2.2°C 29.8°F-1.2°C 78% 10.2 mph S16.4 kmh S 24.3 mph39.1 kmh 29.36 in994.2 mb 0.00 in0.0 mm 0.00 in0.0 mm 0.32 in8.1 mm
01:45 PM 35.8°F2.1°C 29.9°F-1.2°C 79% 11.6 mph S18.7 kmh S 32.2 mph51.8 kmh 29.30 in992.2 mb 0.00 in0.0 mm 0.00 in0.0 mm 0.32 in8.1 mm
02:01 PM 35.6°F2.0°C 30.6°F-0.8°C 82% 10.9 mph S17.5 kmh S 26.8 mph43.1 kmh 29.33 in993.2 mb 0.00 in0.0 mm 0.00 in0.0 mm 0.32 in8.1 mm
02:15 PM 35.6°F2.0°C 30.9°F-0.6°C 83% 10.9 mph S17.5 kmh S 30.4 mph48.9 kmh 29.33 in993.2 mb 0.06 in1.5 mm 0.26 in6.6 mm 0.37 in9.4 mm
02:30 PM 35.6°F2.0°C 31.2°F-0.4°C 84% 11.3 mph S18.2 kmh S 28.3 mph45.5 kmh 29.30 in992.2 mb 0.06 in1.5 mm 0.00 in0.0 mm 0.37 in9.4 mm
02:45 PM 35.6°F2.0°C 31.8°F-0.1°C 86% 10.6 mph S17.1 kmh S 24.7 mph39.8 kmh 29.30 in992.2 mb 0.06 in1.5 mm 0.00 in0.0 mm 0.37 in9.4 mm
03:00 PM 35.2°F1.8°C 31.8°F-0.1°C 87% 11.7 mph S18.8 kmh S 28.3 mph45.5 kmh 29.27 in991.2 mb 0.06 in1.5 mm 0.00 in0.0 mm 0.37 in9.4 mm
03:15 PM 35.2°F1.8°C 32.0°F0.0°C 88% 12.4 mph S20.0 kmh S 40.4 mph65.0 kmh 29.27 in991.2 mb 0.00 in0.0 mm 0.00 in0.0 mm 0.37 in9.4 mm
03:30 PM 35.2°F1.8°C 32.3°F0.2°C 89% 11.7 mph S18.8 kmh S 25.1 mph40.4 kmh 29.27 in991.2 mb 0.00 in0.0 mm 0.00 in0.0 mm 0.37 in9.4 mm
03:45 PM 35.2°F1.8°C 32.6°F0.3°C 90% 8.6 mph S13.8 kmh S 22.9 mph36.9 kmh 29.27 in991.2 mb 0.00 in0.0 mm 0.00 in0.0 mm 0.37 in9.4 mm
04:00 PM 35.1°F1.7°C 32.4°F0.2°C 90% 8.6 mph S13.8 kmh S 20.4 mph32.8 kmh 29.27 in991.2 mb 0.04 in1.0 mm 0.05 in1.3 mm 0.42 in10.7 mm
04:15 PM 35.4°F1.9°C 33.1°F0.6°C 91% 9.0 mph S14.5 kmh S 26.1 mph42.0 kmh 29.27 in991.2 mb 0.04 in1.0 mm 0.00 in0.0 mm 0.42 in10.7 mm
04:30 PM 35.6°F2.0°C 33.5°F0.8°C 92% 8.7 mph S14.0 kmh S 19.3 mph31.1 kmh 29.24 in990.2 mb 0.04 in1.0 mm 0.00 in0.0 mm 0.42 in10.7 mm
04:45 PM 35.4°F1.9°C 33.1°F0.6°C 91% 8.1 mph S13.0 kmh S 22.9 mph36.9 kmh 29.24 in990.2 mb 0.04 in1.0 mm 0.00 in0.0 mm 0.42 in10.7 mm
05:00 PM 35.6°F2.0°C 33.2°F0.7°C 91% 10.4 mph S16.7 kmh S 29.7 mph47.8 kmh 29.24 in990.2 mb 0.00 in0.0 mm 0.00 in0.0 mm 0.42 in10.7 mm
05:15 PM 35.6°F2.0°C 33.0°F0.6°C 90% 9.2 mph S14.8 kmh S 23.3 mph37.5 kmh 29.21 in989.2 mb 0.04 in1.0 mm 0.16 in4.1 mm 0.46 in11.7 mm
05:30 PM 35.6°F2.0°C 33.0°F0.6°C 90% 11.2 mph S18.0 kmh S 22.9 mph36.9 kmh 29.21 in989.2 mb 0.04 in1.0 mm 0.00 in0.0 mm 0.46 in11.7 mm
05:45 PM 35.4°F1.9°C 32.8°F0.4°C 90% 9.8 mph S15.8 kmh S 23.3 mph37.5 kmh 29.21 in989.2 mb 0.04 in1.0 mm 0.00 in0.0 mm 0.46 in11.7 mm
06:00 PM 35.1°F1.7°C 32.4°F0.2°C 90% 11.4 mph S18.3 kmh S 24.3 mph39.1 kmh 29.21 in989.2 mb 0.09 in2.3 mm 0.07 in1.8 mm 0.51 in13.0 mm
06:15 PM 35.1°F1.7°C 32.7°F0.4°C 91% 8.8 mph S14.2 kmh S 23.6 mph38.0 kmh 29.21 in989.2 mb 0.04 in1.0 mm 0.00 in0.0 mm 0.51 in13.0 mm
06:30 PM 35.4°F1.9°C 33.3°F0.7°C 92% 9.4 mph S15.1 kmh S 22.9 mph36.9 kmh 29.21 in989.2 mb 0.09 in2.3 mm 0.20 in5.1 mm 0.55 in14.0 mm
06:45 PM 35.2°F1.8°C 32.9°F0.5°C 91% 12.3 mph S19.8 kmh S 26.5 mph42.6 kmh 29.18 in988.1 mb 0.09 in2.3 mm 0.00 in0.0 mm 0.55 in14.0 mm
07:00 PM 35.2°F1.8°C 32.9°F0.5°C 91% 7.1 mph S11.4 kmh S 17.5 mph28.2 kmh 29.18 in988.1 mb 0.04 in1.0 mm 0.00 in0.0 mm 0.55 in14.0 mm
07:15 PM 35.2°F1.8°C 33.1°F0.6°C 92% 7.0 mph SSE11.3 kmh SSE 20.4 mph32.8 kmh 29.15 in987.1 mb 0.04 in1.0 mm 0.00 in0.0 mm 0.55 in14.0 mm
07:30 PM 35.2°F1.8°C 33.1°F0.6°C 92% 6.5 mph S10.5 kmh S 20.0 mph32.2 kmh 29.15 in987.1 mb 0.04 in1.0 mm 0.00 in0.0 mm 0.59 in15.0 mm
07:45 PM 34.9°F1.6°C 32.5°F0.3°C 91% 7.6 mph SSE12.2 kmh SSE 18.3 mph29.5 kmh 29.15 in987.1 mb 0.04 in1.0 mm 0.00 in0.0 mm 0.59 in15.0 mm
08:00 PM 34.3°F1.3°C 32.0°F0.0°C 91% 6.8 mph SSE10.9 kmh SSE 22.9 mph36.9 kmh 29.15 in987.1 mb 0.04 in1.0 mm 0.00 in0.0 mm 0.59 in15.0 mm
08:15 PM 34.0°F1.1°C 31.6°F-0.2°C 91% 5.1 mph SSE8.2 kmh SSE 18.3 mph29.5 kmh 29.15 in987.1 mb 0.09 in2.3 mm 0.20 in5.1 mm 0.64 in16.3 mm
08:30 PM 34.0°F1.1°C 31.6°F-0.2°C 91% 4.6 mph SSE7.4 kmh SSE 13.6 mph21.9 kmh 29.15 in987.1 mb 0.04 in1.0 mm 0.00 in0.0 mm 0.64 in16.3 mm
08:45 PM 33.8°F1.0°C 31.7°F-0.2°C 92% 5.4 mph SSE8.7 kmh SSE 15.7 mph25.3 kmh 29.12 in986.1 mb 0.04 in1.0 mm 0.00 in0.0 mm 0.64 in16.3 mm
09:00 PM 33.8°F1.0°C 31.7°F-0.2°C 92% 4.7 mph SSE7.6 kmh SSE 14.3 mph23.0 kmh 29.12 in986.1 mb 0.04 in1.0 mm 0.00 in0.0 mm 0.64 in16.3 mm
09:15 PM 34.0°F1.1°C 31.9°F-0.1°C 92% 4.8 mph SE7.7 kmh SE 16.8 mph27.0 kmh 29.09 in985.1 mb 0.00 in0.0 mm 0.00 in0.0 mm 0.64 in16.3 mm
09:30 PM 33.8°F1.0°C 31.7°F-0.2°C 92% 2.9 mph SE4.7 kmh SE 13.6 mph21.9 kmh 29.06 in984.1 mb 0.00 in0.0 mm 0.00 in0.0 mm 0.64 in16.3 mm
09:45 PM 34.2°F1.2°C 32.3°F0.2°C 93% 6.3 mph S10.1 kmh S 20.0 mph32.2 kmh 29.09 in985.1 mb 0.04 in1.0 mm 0.16 in4.1 mm 0.68 in17.3 mm
10:01 PM 34.3°F1.3°C 32.5°F0.3°C 93% 7.1 mph SSE11.4 kmh SSE 13.6 mph21.9 kmh 29.06 in984.1 mb 0.04 in1.0 mm 0.00 in0.0 mm 0.68 in17.3 mm
10:15 PM 34.0°F1.1°C 31.9°F-0.1°C 92% 3.1 mph ESE5.0 kmh ESE 13.6 mph21.9 kmh 29.06 in984.1 mb 0.04 in1.0 mm 0.00 in0.0 mm 0.68 in17.3 mm
10:30 PM 33.4°F0.8°C 31.4°F-0.3°C 92% 2.4 mph SE3.9 kmh SE 10.4 mph16.7 kmh 29.03 in983.1 mb 0.00 in0.0 mm 0.00 in0.0 mm 0.68 in17.3 mm
10:45 PM 33.3°F0.7°C 31.2°F-0.4°C 92% 3.1 mph SE5.0 kmh SE 10.0 mph16.1 kmh 29.03 in983.1 mb 0.00 in0.0 mm 0.00 in0.0 mm 0.68 in17.3 mm
11:00 PM 33.1°F0.6°C 31.0°F-0.6°C 92% 3.8 mph SE6.1 kmh SE 11.5 mph18.5 kmh 29.03 in983.1 mb 0.00 in0.0 mm 0.00 in0.0 mm 0.68 in17.3 mm
11:15 PM 33.1°F0.6°C 31.3°F-0.4°C 93% 2.1 mph SE3.4 kmh SE 11.1 mph17.9 kmh 29.03 in983.1 mb 0.00 in0.0 mm 0.00 in0.0 mm 0.68 in17.3 mm
11:30 PM 33.1°F0.6°C 31.3°F-0.4°C 93% 2.7 mph ESE4.3 kmh ESE 13.6 mph21.9 kmh 29.03 in983.1 mb 0.00 in0.0 mm 0.00 in0.0 mm 0.68 in17.3 mm
11:45 PM 33.1°F0.6°C 31.3°F-0.4°C 93% 5.2 mph ESE8.4 kmh ESE 16.1 mph25.9 kmh 29.03 in983.1 mb 0.00 in0.0 mm 0.00 in0.0 mm 0.68 in17.3 mm